KTCC/TCC METAR and TAF weather

Enter ICAO airport designator
Station Type Date Time Source
KTCC METAR 2020/07/10 13:53 UTC NOAA

KTCC 101353Z AUTO 35007KT 10SM CLR 28/12 A3008 RMK AO2 SLP104 T02830117


Station Type Date Time Source
KTCC Decoded METAR 2020/07/10 13:53 UTC NOAA

TUCUMCARI MUNICIPAL AIRPORT , NM, United States (KTCC) 35-11N 103-36W 1235M
Jul 10, 2020 - 09:53 AM EDT / 2020.07.10 1353 UTC
Wind: from the N (350 degrees) at 8 MPH (7 KT):0
Visibility: 10 mile(s):0
Sky conditions: clear
Temperature: 82.9 F (28.3 C)
Dew Point: 53.1 F (11.7 C)
Relative Humidity: 35%
Pressure (altimeter): 30.08 in. Hg (1018 hPa)
ob: KTCC 101353Z AUTO 35007KT 10SM CLR 28/12 A3008 RMK AO2 SLP104 T02830117
cycle: 14

Station Type Date Time Source
KTCC TAF 2020/07/10 12:22 UTC NOAA

TAF KTCC 101120Z 1012/1112 28010KT P6SM SKC
FM101600 02005KT P6SM SKC
FM102100 23006KT P6SM SKC
FM110200 17008KT P6SM SKC

Example: see airport list